Time;durP1;ratioP1;P1;durP2;ratioP2;P2;SDS_P1;SDS_P2;PMS_P1;PMS_P2;Temp;Humidity;BMP_temperature;BMP_pressure;BME280_temperature;BME280_humidity;BME280_pressure;Samples;Min_cycle;Max_cycle;Signal;HPM_P1;HPM_P2
2021/03/17 00:00:49;;;;;;;14.77;3.03;;;3.40;99.90;;;;;;12587441;28;20071;-83
2021/03/17 00:06:51;;;;;;;9.88;2.20;;;3.60;99.90;;;;;;12600933;28;20051;-83
2021/03/17 00:12:54;;;;;;;9.07;1.90;;;3.70;99.90;;;;;;12595092;28;20047;-83
2021/03/17 00:18:55;;;;;;;10.93;1.80;;;3.60;99.90;;;;;;12612302;28;20189;-83
2021/03/17 00:24:57;;;;;;;14.55;2.38;;;3.50;99.90;;;;;;12582031;28;20051;-84
2021/03/17 00:30:58;;;;;;;8.60;2.33;;;3.40;99.90;;;;;;12591639;28;20048;-84
2021/03/17 00:37:01;;;;;;;10.80;2.13;;;3.40;99.90;;;;;;12586484;28;20512;-83
2021/03/17 00:43:03;;;;;;;10.68;1.77;;;3.40;99.90;;;;;;12583866;28;20090;-84
2021/03/17 00:49:04;;;;;;;7.63;2.03;;;3.30;99.90;;;;;;12578366;28;20040;-84
2021/03/17 00:55:06;;;;;;;9.18;2.13;;;3.30;99.90;;;;;;12581239;28;20547;-84
2021/03/17 01:01:08;;;;;;;12.25;2.40;;;3.30;99.90;;;;;;12579114;28;20047;-83
2021/03/17 01:07:17;;;;;;;9.23;2.35;;;3.30;99.90;;;;;;12584526;28;20126;-83
2021/03/17 01:13:20;;;;;;;11.35;2.67;;;3.30;99.90;;;;;;12596579;28;20043;-83
2021/03/17 01:19:21;;;;;;;11.70;3.40;;;3.10;99.90;;;;;;12588152;28;20098;-84
2021/03/17 01:25:31;;;;;;;13.82;2.70;;;3.10;99.90;;;;;;12587036;28;20040;-84
2021/03/17 01:31:32;;;;;;;10.15;2.67;;;3.10;99.90;;;;;;12593175;28;20052;-84
2021/03/17 01:37:33;;;;;;;13.10;3.30;;;2.90;99.90;;;;;;12584644;28;20044;-84
2021/03/17 01:43:35;;;;;;;19.27;3.83;;;3.00;99.90;;;;;;12591676;28;20112;-84
2021/03/17 01:49:36;;;;;;;11.25;2.88;;;2.90;99.90;;;;;;12587400;28;20427;-84
2021/03/17 01:55:38;;;;;;;12.85;3.10;;;3.00;99.90;;;;;;12588353;28;20048;-83
2021/03/17 02:01:40;;;;;;;15.30;3.47;;;3.10;99.90;;;;;;12586814;28;20438;-83
2021/03/17 02:07:43;;;;;;;20.77;3.13;;;3.00;99.90;;;;;;12584369;28;20048;-84
2021/03/17 02:14:15;;;;;;;10.98;2.97;;;3.00;99.90;;;;;;12589473;28;20479;-84
2021/03/17 02:20:42;;;;;;;11.75;3.58;;;3.00;99.90;;;;;;12594826;28;20143;-83
2021/03/17 02:27:04;;;;;;;16.55;4.88;;;3.00;99.90;;;;;;12650478;28;20061;-84
2021/03/17 02:33:45;;;;;;;15.50;4.20;;;3.00;99.90;;;;;;12655558;28;20101;-84
2021/03/17 02:40:23;;;;;;;11.55;3.65;;;2.90;99.90;;;;;;12652270;28;20042;-83
2021/03/17 02:46:28;;;;;;;10.05;4.03;;;2.90;99.90;;;;;;12645934;28;20055;-84
2021/03/17 02:52:37;;;;;;;13.13;4.85;;;2.90;99.90;;;;;;12632146;28;20055;-84
2021/03/17 02:58:43;;;;;;;11.57;3.35;;;3.00;99.90;;;;;;12636210;28;20074;-84
2021/03/17 03:04:45;;;;;;;12.77;5.05;;;3.00;99.90;;;;;;12596969;28;20052;-84
2021/03/17 03:10:47;;;;;;;13.00;3.67;;;3.00;99.90;;;;;;12596683;28;20387;-84
2021/03/17 03:16:52;;;;;;;10.35;3.47;;;3.10;99.90;;;;;;12612559;28;20513;-83
2021/03/17 03:22:54;;;;;;;;;;;3.00;99.90;;;;;;12596369;28;20146;-83
2021/03/17 03:28:56;;;;;;;13.25;4.22;;;3.10;99.90;;;;;;12597602;28;19991;-84
2021/03/17 03:34:57;;;;;;;11.18;4.90;;;3.00;99.90;;;;;;12597546;28;20071;-84
2021/03/17 03:40:59;;;;;;;14.73;4.57;;;2.90;99.90;;;;;;12619517;28;20074;-83
2021/03/17 03:47:01;;;;;;;13.15;3.97;;;2.90;99.90;;;;;;12597491;28;20825;-83
2021/03/17 03:53:15;;;;;;;11.13;4.40;;;3.00;99.90;;;;;;12597257;28;20662;-84
2021/03/17 03:59:27;;;;;;;10.43;4.47;;;3.00;99.90;;;;;;12605343;28;20056;-84
2021/03/17 04:05:36;;;;;;;11.23;4.07;;;2.80;99.90;;;;;;12601642;28;20040;-83
2021/03/17 04:11:38;;;;;;;12.43;3.67;;;2.80;99.90;;;;;;12596292;28;20064;-84
2021/03/17 04:17:53;;;;;;;15.82;4.47;;;2.90;99.90;;;;;;12609601;28;20503;-84
2021/03/17 04:23:58;;;;;;;10.95;3.53;;;2.80;99.90;;;;;;12594286;28;20040;-84
2021/03/17 04:30:03;;;;;;;11.35;3.30;;;2.80;99.90;;;;;;12597202;28;20348;-83
2021/03/17 04:36:07;;;;;;;13.13;4.10;;;2.80;99.90;;;;;;12594787;28;20056;-84
2021/03/17 04:42:09;;;;;;;14.93;3.40;;;2.80;99.90;;;;;;12609381;28;20127;-84
2021/03/17 04:48:10;;;;;;;15.48;3.38;;;2.70;99.90;;;;;;12590878;28;20048;-83
2021/03/17 04:54:12;;;;;;;11.90;3.35;;;2.80;99.90;;;;;;12595166;28;20068;-84
2021/03/17 05:00:20;;;;;;;8.35;3.28;;;2.80;99.90;;;;;;12597848;28;20059;-84
2021/03/17 05:06:21;;;;;;;9.38;2.72;;;2.80;99.90;;;;;;12591279;28;20079;-83
2021/03/17 05:12:24;;;;;;;10.80;2.45;;;3.00;99.90;;;;;;12585266;28;20177;-83
2021/03/17 05:18:26;;;;;;;7.13;2.15;;;3.00;99.90;;;;;;12596627;28;20082;-84
2021/03/17 05:24:28;;;;;;;8.95;3.17;;;3.00;99.90;;;;;;12593087;28;20119;-84
2021/03/17 05:30:32;;;;;;;5.93;1.63;;;3.00;99.90;;;;;;12586366;28;20094;-84
2021/03/17 05:36:36;;;;;;;7.72;1.75;;;3.00;99.90;;;;;;12591220;28;20052;-83
2021/03/17 05:42:39;;;;;;;9.32;2.05;;;3.00;99.90;;;;;;12582070;28;20444;-84
2021/03/17 05:48:42;;;;;;;8.23;2.35;;;2.90;99.90;;;;;;12595595;28;20086;-85
2021/03/17 05:54:44;;;;;;;6.35;1.90;;;2.90;99.90;;;;;;12597030;28;20531;-84
2021/03/17 06:00:45;;;;;;;9.45;2.10;;;2.90;99.90;;;;;;12613385;28;20062;-84
2021/03/17 06:06:51;;;;;;;11.60;2.25;;;3.00;99.90;;;;;;12593848;28;20047;-85
2021/03/17 06:12:57;;;;;;;7.07;1.90;;;3.10;99.90;;;;;;12608317;28;20123;-84
2021/03/17 06:19:02;;;;;;;5.82;1.65;;;3.10;99.90;;;;;;12610957;28;20147;-85
2021/03/17 06:25:04;;;;;;;;;;;3.00;99.90;;;;;;12601492;28;20040;-84
2021/03/17 06:31:06;;;;;;;6.32;1.90;;;3.10;99.90;;;;;;12587737;28;20386;-85
2021/03/17 06:37:08;;;;;;;8.18;1.73;;;3.20;99.90;;;;;;12604033;28;20059;-84
2021/03/17 06:43:11;;;;;;;8.07;1.70;;;3.20;99.90;;;;;;12586633;28;20578;-85
2021/03/17 06:49:33;;;;;;;7.00;1.70;;;3.20;99.90;;;;;;12599298;28;20512;-84
2021/03/17 06:55:35;;;;;;;8.30;2.20;;;3.30;99.90;;;;;;12600670;28;20135;-85
2021/03/17 07:01:42;;;;;;;7.20;1.73;;;3.40;99.90;;;;;;12591425;28;20060;-85
2021/03/17 07:07:50;;;;;;;6.18;1.98;;;3.40;99.90;;;;;;12600005;28;20213;-84
2021/03/17 07:14:02;;;;;;;9.23;2.10;;;3.60;99.90;;;;;;12600933;28;20042;-84
2021/03/17 07:20:06;;;;;;;12.48;2.40;;;3.70;99.90;;;;;;12598931;28;20138;-85
2021/03/17 07:26:20;;;;;;;5.65;1.90;;;3.80;99.90;;;;;;12595342;28;20040;-84
2021/03/17 07:32:21;;;;;;;10.82;1.90;;;3.80;99.90;;;;;;12590595;28;20048;-85
2021/03/17 07:38:23;;;;;;;6.30;1.67;;;3.80;99.90;;;;;;12598366;28;20052;-85
2021/03/17 07:44:26;;;;;;;6.10;1.98;;;3.70;99.90;;;;;;12590733;28;20048;-85
2021/03/17 07:50:27;;;;;;;7.20;1.95;;;3.70;99.90;;;;;;12583832;28;20072;-84
2021/03/17 07:56:29;;;;;;;9.20;1.80;;;3.70;99.90;;;;;;12593838;28;20096;-85
2021/03/17 08:02:31;;;;;;;11.13;1.77;;;3.70;99.90;;;;;;12588231;28;20142;-85
2021/03/17 08:08:34;;;;;;;4.78;2.00;;;3.80;99.90;;;;;;12599896;28;20076;-84
2021/03/17 08:14:38;;;;;;;6.57;2.15;;;3.90;99.90;;;;;;12596396;28;20075;-85
2021/03/17 08:20:47;;;;;;;7.80;1.73;;;4.00;99.90;;;;;;12601809;28;20059;-85
2021/03/17 08:26:48;;;;;;;7.43;2.63;;;4.00;99.90;;;;;;12617510;28;20044;-85
2021/03/17 08:32:54;;;;;;;6.85;1.63;;;4.00;99.90;;;;;;12628214;28;20055;-84
2021/03/17 08:38:58;;;;;;;7.32;1.65;;;4.10;99.90;;;;;;12624638;28;20059;-85
2021/03/17 08:45:15;;;;;;;7.90;1.80;;;4.10;99.90;;;;;;12595968;28;20127;-84
2021/03/17 08:51:16;;;;;;;9.80;2.55;;;4.10;99.90;;;;;;12582523;28;20051;-85
2021/03/17 08:57:19;;;;;;;11.63;2.83;;;4.10;99.90;;;;;;12584992;28;20048;-85
2021/03/17 09:03:33;;;;;;;5.45;1.73;;;4.40;99.90;;;;;;12599378;28;20131;-84
2021/03/17 09:09:49;;;;;;;4.50;1.42;;;4.60;99.90;;;;;;12585394;28;20475;-85
2021/03/17 09:15:51;;;;;;;8.70;1.50;;;4.70;99.90;;;;;;12603951;28;20092;-84
2021/03/17 09:21:52;;;;;;;6.07;1.45;;;5.10;99.90;;;;;;12598712;28;20043;-85
2021/03/17 09:28:18;;;;;;;7.95;1.85;;;5.20;99.90;;;;;;12579587;28;20496;-85
2021/03/17 09:34:28;;;;;;;8.55;1.48;;;5.20;99.90;;;;;;12570690;28;20044;-85
2021/03/17 09:40:40;;;;;;;6.32;1.38;;;5.50;99.90;;;;;;12570195;28;20785;-85
2021/03/17 09:46:46;;;;;;;4.90;1.35;;;5.70;99.90;;;;;;12586559;28;20091;-85
2021/03/17 09:52:48;;;;;;;5.72;1.23;;;5.60;99.90;;;;;;12568977;28;20052;-85
2021/03/17 09:58:49;;;;;;;7.13;1.38;;;5.80;99.90;;;;;;12588294;28;20087;-85
2021/03/17 10:04:56;;;;;;;6.53;1.38;;;6.10;99.90;;;;;;12585273;28;20175;-85
2021/03/17 10:10:57;;;;;;;10.50;1.50;;;6.20;99.90;;;;;;12581768;28;20128;-85
2021/03/17 10:17:01;;;;;;;7.82;1.50;;;6.10;99.90;;;;;;12582418;28;20157;-85
2021/03/17 10:23:03;;;;;;;7.80;1.20;;;5.80;99.90;;;;;;12576029;28;20503;-85
2021/03/17 10:29:05;;;;;;;6.93;1.40;;;6.00;99.90;;;;;;12590405;28;20377;-85
2021/03/17 10:35:10;;;;;;;8.10;1.60;;;6.00;99.90;;;;;;12592760;28;20749;-85
2021/03/17 10:41:11;;;;;;;5.43;1.20;;;6.10;99.90;;;;;;12584866;28;20505;-84
2021/03/17 10:47:13;;;;;;;8.00;1.42;;;6.00;99.90;;;;;;12589168;28;20690;-85
2021/03/17 10:53:16;;;;;;;6.22;1.27;;;5.90;99.90;;;;;;12585077;28;20515;-85
2021/03/17 10:59:44;;;;;;;7.00;1.20;;;5.90;99.90;;;;;;12613880;28;20412;-85
2021/03/17 11:05:45;;;;;;;7.72;1.00;;;5.60;99.90;;;;;;12585516;28;20048;-85
2021/03/17 11:11:54;;;;;;;6.60;1.15;;;5.60;99.90;;;;;;12600177;28;20114;-85
2021/03/17 11:17:56;;;;;;;7.00;1.60;;;5.40;99.90;;;;;;12612653;28;20385;-85
2021/03/17 11:24:00;;;;;;;6.28;1.30;;;5.50;99.90;;;;;;12571016;28;20848;-86
2021/03/17 11:30:02;;;;;;;7.07;1.73;;;5.60;99.90;;;;;;12587868;28;20166;-85
2021/03/17 11:36:05;;;;;;;6.43;2.88;;;5.90;99.90;;;;;;12584585;28;20036;-85
2021/03/17 11:42:07;;;;;;;6.57;1.50;;;6.00;99.90;;;;;;12582676;28;20120;-85
2021/03/17 11:48:09;;;;;;;7.40;1.80;;;6.10;99.90;;;;;;12585456;28;20478;-84
2021/03/17 11:54:10;;;;;;;4.72;1.58;;;6.20;99.90;;;;;;12589700;28;20047;-85
2021/03/17 12:00:12;;;;;;;6.88;1.48;;;6.20;99.90;;;;;;12589816;28;20063;-85
2021/03/17 12:06:14;;;;;;;6.20;1.73;;;6.20;99.90;;;;;;12609431;28;20088;-85
2021/03/17 12:12:15;;;;;;;10.23;1.73;;;6.20;99.90;;;;;;12593419;28;20048;-85
2021/03/17 12:18:19;;;;;;;5.97;1.60;;;6.60;99.90;;;;;;12594419;28;20452;-85
2021/03/17 12:24:21;;;;;;;7.93;2.13;;;6.90;99.90;;;;;;12581351;28;20801;-86
2021/03/17 12:30:24;;;;;;;7.97;1.58;;;7.50;99.90;;;;;;12586466;28;20047;-85
2021/03/17 12:36:25;;;;;;;6.43;1.55;;;7.80;99.90;;;;;;12605073;28;20556;-85
2021/03/17 12:42:26;;;;;;;8.90;1.70;;;7.30;99.90;;;;;;12588921;28;20470;-85
2021/03/17 12:48:28;;;;;;;5.50;1.40;;;6.80;99.90;;;;;;12595137;28;20823;-86
2021/03/17 12:54:29;;;;;;;5.20;1.50;;;6.80;99.90;;;;;;12584943;28;20108;-85
2021/03/17 13:00:31;;;;;;;7.38;1.60;;;7.40;99.90;;;;;;12578963;28;20075;-86
2021/03/17 13:06:33;;;;;;;6.57;1.50;;;8.10;99.90;;;;;;12584170;28;20044;-85
2021/03/17 13:12:36;;;;;;;5.97;1.67;;;8.70;99.90;;;;;;12579551;28;20044;-85
2021/03/17 13:18:38;;;;;;;8.77;1.40;;;8.50;99.90;;;;;;12587615;28;20076;-85
2021/03/17 13:24:39;;;;;;;3.05;1.27;;;8.90;99.90;;;;;;12586042;28;20457;-86
2021/03/17 13:30:55;;;;;;;7.35;1.65;;;9.10;99.90;;;;;;12577505;28;20071;-86
2021/03/17 13:36:56;;;;;;;6.50;1.48;;;8.80;99.90;;;;;;12589236;28;20140;-86
2021/03/17 13:42:58;;;;;;;4.50;1.52;;;8.10;99.90;;;;;;12573832;28;20139;-86
2021/03/17 13:48:59;;;;;;;5.22;1.40;;;7.80;99.90;;;;;;12585680;28;20076;-86
2021/03/17 13:55:00;;;;;;;7.57;1.17;;;7.80;99.90;;;;;;12581279;28;20484;-86
2021/03/17 14:01:02;;;;;;;3.95;1.20;;;8.20;99.90;;;;;;12588804;28;20398;-85
2021/03/17 14:07:03;;;;;;;3.92;1.15;;;8.00;99.90;;;;;;12592046;28;20044;-86
2021/03/17 14:13:06;;;;;;;5.88;1.42;;;7.50;99.90;;;;;;12584790;28;20047;-86
2021/03/17 14:19:09;;;;;;;7.40;1.80;;;7.40;99.90;;;;;;12609329;28;20491;-86
2021/03/17 14:25:13;;;;;;;4.95;1.20;;;7.80;99.90;;;;;;12587989;28;21287;-86
2021/03/17 14:31:14;;;;;;;3.83;1.17;;;8.30;99.90;;;;;;12600004;28;20152;-86
2021/03/17 14:37:16;;;;;;;9.90;1.42;;;8.00;99.90;;;;;;12595663;28;20134;-86
2021/03/17 14:43:17;;;;;;;6.00;1.20;;;8.60;99.90;;;;;;12597478;28;20072;-86
2021/03/17 14:49:19;;;;;;;4.68;1.20;;;8.70;99.90;;;;;;12617931;28;20036;-87
2021/03/17 14:55:20;;;;;;;3.00;1.08;;;8.40;99.90;;;;;;12643819;28;20146;-86
2021/03/17 15:01:23;;;;;;;4.97;1.17;;;8.30;99.90;;;;;;12654317;28;20278;-86
2021/03/17 15:07:28;;;;;;;;;;;7.80;99.90;;;;;;12630494;28;20051;-87
2021/03/17 15:13:30;;;;;;;7.22;1.40;;;8.20;99.90;;;;;;12629993;28;19942;-86
2021/03/17 15:19:32;;;;;;;6.93;2.05;;;7.80;99.90;;;;;;12603430;28;20036;-86
2021/03/17 15:25:34;;;;;;;9.77;1.77;;;7.60;99.90;;;;;;12605375;28;20044;-86
2021/03/17 15:31:35;;;;;;;4.70;1.30;;;7.90;99.90;;;;;;12563496;28;20085;-86
2021/03/17 15:37:37;;;;;;;3.42;1.30;;;7.60;99.90;;;;;;12615821;28;20055;-86
2021/03/17 15:43:39;;;;;;;4.25;1.20;;;7.40;99.90;;;;;;12592364;28;20047;-86
2021/03/17 15:49:43;;;;;;;4.68;1.10;;;7.30;99.90;;;;;;12598914;28;20093;-86
2021/03/17 15:55:45;;;;;;;5.45;1.30;;;7.60;99.90;;;;;;12596070;28;20051;-86
2021/03/17 16:01:49;;;;;;;3.47;1.05;;;8.30;99.90;;;;;;12587738;28;20139;-86
2021/03/17 16:07:51;;;;;;;3.25;1.10;;;8.70;99.90;;;;;;12617094;28;20060;-86
2021/03/17 16:13:53;;;;;;;5.50;1.17;;;8.30;99.90;;;;;;12619531;28;20044;-86
2021/03/17 16:19:55;;;;;;;4.75;1.73;;;7.80;99.90;;;;;;12589669;28;20056;-86
2021/03/17 16:25:57;;;;;;;6.50;1.90;;;7.60;99.90;;;;;;12598141;28;20036;-86
2021/03/17 16:31:58;;;;;;;4.03;1.70;;;7.40;99.90;;;;;;12611858;28;20067;-85
2021/03/17 16:37:59;;;;;;;4.65;1.90;;;7.00;99.90;;;;;;12599638;28;20476;-85
2021/03/17 16:44:01;;;;;;;6.90;1.77;;;6.90;99.90;;;;;;12585308;28;20123;-85
2021/03/17 16:50:04;;;;;;;4.70;2.20;;;6.90;99.90;;;;;;12606381;28;20047;-85
2021/03/17 16:56:06;;;;;;;6.05;2.13;;;6.80;99.90;;;;;;12591194;28;20074;-85
2021/03/17 17:02:07;;;;;;;6.05;2.35;;;6.70;99.90;;;;;;12597845;28;20051;-85
2021/03/17 17:08:09;;;;;;;6.05;2.15;;;6.50;99.90;;;;;;12605770;28;20099;-86
2021/03/17 17:14:10;;;;;;;6.43;3.13;;;6.40;99.90;;;;;;12585920;28;20045;-85
2021/03/17 17:20:15;;;;;;;5.80;2.70;;;6.40;99.90;;;;;;12563475;28;20048;-85
2021/03/17 17:26:18;;;;;;;7.20;3.78;;;6.40;99.90;;;;;;12590291;28;20048;-85
2021/03/17 17:32:19;;;;;;;7.40;2.85;;;6.40;99.90;;;;;;12577660;28;20047;-85
2021/03/17 17:38:21;;;;;;;9.23;2.67;;;6.20;99.90;;;;;;12587089;28;20359;-85
2021/03/17 17:44:23;;;;;;;4.30;2.28;;;5.90;99.90;;;;;;12568408;28;20134;-85
2021/03/17 17:50:24;;;;;;;4.22;2.05;;;5.80;99.90;;;;;;12584242;28;20040;-86
2021/03/17 17:56:26;;;;;;;6.18;2.80;;;5.60;99.90;;;;;;12587452;28;20059;-85
2021/03/17 18:02:27;;;;;;;7.85;3.28;;;5.20;99.90;;;;;;12561283;28;20044;-84
2021/03/17 18:08:30;;;;;;;5.93;2.35;;;4.70;99.90;;;;;;12586333;28;20067;-84
2021/03/17 18:14:32;;;;;;;4.60;2.03;;;4.30;99.90;;;;;;12574173;28;20079;-84
2021/03/17 18:20:34;;;;;;;4.68;2.38;;;3.80;99.90;;;;;;12576580;28;20043;-84
2021/03/17 18:26:36;;;;;;;7.53;3.10;;;3.50;99.90;;;;;;12574408;28;20064;-84
2021/03/17 18:32:38;;;;;;;4.93;2.55;;;3.40;99.90;;;;;;12583736;28;20545;-84
2021/03/17 18:38:40;;;;;;;6.05;2.35;;;3.30;99.90;;;;;;12579078;28;20048;-83
2021/03/17 18:44:41;;;;;;;6.13;2.40;;;3.20;99.90;;;;;;12587089;28;20122;-84
2021/03/17 18:50:42;;;;;;;6.97;2.60;;;3.10;99.90;;;;;;12571073;28;20544;-84
2021/03/17 18:56:44;;;;;;;3.42;2.15;;;3.10;99.90;;;;;;12591988;28;20143;-84
2021/03/17 19:02:46;;;;;;;5.70;2.78;;;2.90;99.90;;;;;;12545681;28;20147;-84
2021/03/17 19:08:47;;;;;;;8.27;4.13;;;2.90;99.90;;;;;;12583267;28;20526;-84
2021/03/17 19:14:52;;;;;;;15.60;6.40;;;2.80;99.90;;;;;;12581389;28;20131;-84
2021/03/17 19:21:04;;;;;;;13.80;7.53;;;2.80;99.90;;;;;;12579621;28;20044;-84
2021/03/17 19:27:05;;;;;;;12.40;7.57;;;2.70;99.90;;;;;;12568807;28;20101;-84
2021/03/17 19:33:07;;;;;;;8.45;5.32;;;2.70;99.90;;;;;;12580539;28;20125;-84
2021/03/17 19:39:09;;;;;;;10.75;5.75;;;2.60;99.90;;;;;;12573334;28;20453;-84
2021/03/17 19:45:12;;;;;;;8.55;6.32;;;2.40;99.90;;;;;;12568929;28;20044;-84
2021/03/17 19:51:17;;;;;;;12.70;7.75;;;2.30;99.90;;;;;;12579705;28;20040;-84
2021/03/17 19:57:18;;;;;;;8.15;5.82;;;2.20;99.90;;;;;;12571428;28;20143;-84
2021/03/17 20:03:20;;;;;;;15.95;8.95;;;2.40;99.90;;;;;;12590345;28;20036;-84
2021/03/17 20:09:24;;;;;;;9.07;6.13;;;2.20;99.90;;;;;;12574756;28;20135;-84
2021/03/17 20:15:31;;;;;;;11.23;6.35;;;1.90;99.90;;;;;;12570950;28;20483;-84
2021/03/17 20:21:33;;;;;;;10.38;5.93;;;1.80;99.90;;;;;;12578903;28;20142;-84
2021/03/17 20:27:35;;;;;;;9.18;5.57;;;1.70;99.90;;;;;;12579907;28;20044;-83
2021/03/17 20:33:37;;;;;;;10.55;7.38;;;1.70;99.90;;;;;;12584764;28;20055;-84
2021/03/17 20:39:40;;;;;;;9.05;6.40;;;1.70;99.90;;;;;;12566341;28;20048;-84
2021/03/17 20:45:42;;;;;;;12.63;6.85;;;1.70;99.90;;;;;;12567939;28;20070;-84
2021/03/17 20:51:43;;;;;;;12.57;6.65;;;2.00;99.90;;;;;;12567739;28;20032;-84
2021/03/17 20:57:45;;;;;;;10.35;6.40;;;1.90;99.90;;;;;;12582479;28;20629;-84
2021/03/17 21:03:46;;;;;;;8.02;5.50;;;1.90;99.90;;;;;;12576785;28;20131;-84
2021/03/17 21:09:48;;;;;;;9.30;6.38;;;1.70;99.90;;;;;;12570597;28;20091;-84
2021/03/17 21:15:49;;;;;;;8.75;5.95;;;1.50;99.90;;;;;;12579838;28;20134;-84
2021/03/17 21:21:52;;;;;;;11.00;6.03;;;1.40;99.90;;;;;;12572030;28;20083;-84
2021/03/17 21:27:55;;;;;;;9.52;6.40;;;1.30;99.90;;;;;;12578995;28;20088;-84
2021/03/17 21:33:59;;;;;;;9.48;5.97;;;1.10;99.90;;;;;;12592414;28;20143;-84
2021/03/17 21:40:03;;;;;;;9.17;5.83;;;1.00;99.90;;;;;;12576640;28;20134;-84
2021/03/17 21:46:04;;;;;;;9.20;5.95;;;0.90;99.90;;;;;;12592230;28;20044;-84
2021/03/17 21:52:06;;;;;;;9.43;6.38;;;1.00;99.90;;;;;;12575009;28;20048;-84
2021/03/17 21:58:07;;;;;;;9.73;6.50;;;1.20;99.90;;;;;;12577109;28;20517;-83
2021/03/17 22:04:09;;;;;;;9.43;6.50;;;1.10;99.90;;;;;;12565859;28;20396;-84
2021/03/17 22:10:14;;;;;;;9.63;6.50;;;1.10;99.90;;;;;;12548353;28;20089;-84
2021/03/17 22:16:16;;;;;;;8.45;5.88;;;1.10;99.90;;;;;;12554477;28;20092;-84
2021/03/17 22:22:17;;;;;;;8.18;6.40;;;1.00;99.90;;;;;;12557790;28;20520;-83
2021/03/17 22:28:19;;;;;;;14.15;7.85;;;1.00;99.90;;;;;;12549636;28;20045;-83
2021/03/17 22:34:20;;;;;;;10.60;6.95;;;1.30;99.90;;;;;;12547922;28;20599;-84
2021/03/17 22:40:22;;;;;;;9.57;5.55;;;1.30;99.90;;;;;;12535527;28;20044;-84
2021/03/17 22:46:25;;;;;;;11.73;8.02;;;1.20;99.90;;;;;;12560917;28;20053;-84
2021/03/17 22:52:27;;;;;;;13.07;8.15;;;1.20;99.90;;;;;;12536083;28;20052;-84
2021/03/17 22:58:30;;;;;;;12.38;8.07;;;1.30;99.90;;;;;;12547412;28;20202;-84
2021/03/17 23:04:31;;;;;;;11.82;5.78;;;1.30;99.90;;;;;;12543013;28;20045;-84
2021/03/17 23:10:39;;;;;;;12.48;8.30;;;1.00;99.90;;;;;;12556111;28;20143;-83
2021/03/17 23:16:41;;;;;;;15.57;9.13;;;1.00;99.90;;;;;;12556843;28;20137;-84
2021/03/17 23:22:43;;;;;;;17.63;10.80;;;1.10;99.90;;;;;;12546003;28;20480;-84
2021/03/17 23:28:51;;;;;;;12.95;8.90;;;1.20;99.90;;;;;;12544700;28;20097;-84
2021/03/17 23:34:55;;;;;;;13.30;8.95;;;1.20;99.90;;;;;;12556145;28;20109;-84
2021/03/17 23:41:00;;;;;;;12.60;8.55;;;1.00;99.90;;;;;;12542185;28;20439;-84
2021/03/17 23:47:02;;;;;;;15.65;9.07;;;0.90;99.90;;;;;;12555303;28;20041;-84
2021/03/17 23:53:05;;;;;;;15.40;8.82;;;0.80;99.90;;;;;;12555031;28;20508;-84
2021/03/17 23:59:08;;;;;;;16.45;9.35;;;0.70;99.90;;;;;;12553503;28;20565;-84
